Time;durP1;ratioP1;P1;durP2;ratioP2;P2;SDS_P1;SDS_P2;PMS_P1;PMS_P2;Temp;Humidity;BMP_temperature;BMP_pressure;BME280_temperature;BME280_humidity;BME280_pressure;Samples;Min_cycle;Max_cycle;Signal;HPM_P1;HPM_P2
2022/12/21 00:02:02;;;;;;;29.73;11.48;;;8.60;99.90;;;;;;5015324;28;20100;-71
2022/12/21 00:04:28;;;;;;;23.45;10.07;;;8.50;99.90;;;;;;5019748;28;20036;-70
2022/12/21 00:06:54;;;;;;;29.17;10.32;;;8.50;99.90;;;;;;5016937;28;20147;-70
2022/12/21 00:09:20;;;;;;;27.08;10.90;;;8.50;99.90;;;;;;5017845;28;20033;-70
2022/12/21 00:11:45;;;;;;;34.85;11.70;;;8.40;99.90;;;;;;5016751;28;20575;-70
2022/12/21 00:14:11;;;;;;;29.83;10.02;;;8.40;99.90;;;;;;5015972;28;20550;-71
2022/12/21 00:16:38;;;;;;;23.38;9.55;;;8.40;99.90;;;;;;5017665;28;20528;-72
2022/12/21 00:19:04;;;;;;;26.08;10.57;;;8.40;99.90;;;;;;5016174;28;20490;-70
2022/12/21 00:21:35;;;;;;;26.60;10.38;;;8.40;99.90;;;;;;5019811;28;20113;-68
2022/12/21 00:24:01;;;;;;;26.73;9.70;;;8.30;99.90;;;;;;5015434;28;20060;-71
2022/12/21 00:26:32;;;;;;;22.60;9.00;;;8.20;99.90;;;;;;5018436;28;20042;-70
2022/12/21 00:28:58;;;;;;;28.70;10.68;;;8.20;99.90;;;;;;5002009;28;20122;-69
2022/12/21 00:31:26;;;;;;;23.75;9.48;;;8.10;99.90;;;;;;5015924;28;20034;-70
2022/12/21 00:33:53;;;;;;;24.95;9.38;;;8.10;99.90;;;;;;5011642;28;20034;-71
2022/12/21 00:36:20;;;;;;;25.23;9.50;;;8.10;99.90;;;;;;5017959;28;20045;-71
2022/12/21 00:38:49;;;;;;;26.15;9.95;;;8.10;99.90;;;;;;5014618;28;20073;-68
2022/12/21 00:41:17;;;;;;;21.67;8.82;;;8.10;99.90;;;;;;5015492;28;20403;-68
2022/12/21 00:43:44;;;;;;;25.75;9.82;;;8.10;99.90;;;;;;5017805;28;20514;-70
2022/12/21 00:46:18;;;;;;;18.67;8.43;;;8.10;99.90;;;;;;5016007;28;20502;-71
2022/12/21 00:48:44;;;;;;;23.30;8.88;;;8.00;99.90;;;;;;5018103;28;20045;-71
2022/12/21 00:51:12;;;;;;;20.80;9.13;;;8.00;99.90;;;;;;5010619;28;20123;-70
2022/12/21 00:53:39;;;;;;;18.85;8.23;;;8.00;99.90;;;;;;5009342;28;20038;-71
2022/12/21 00:56:07;;;;;;;23.67;8.73;;;8.00;99.90;;;;;;5004300;28;20034;-70
2022/12/21 00:58:33;;;;;;;22.98;8.45;;;7.90;99.90;;;;;;5010771;28;20049;-70
2022/12/21 01:01:04;;;;;;;22.52;9.02;;;7.90;99.90;;;;;;5005285;28;20046;-71
2022/12/21 01:03:29;;;;;;;20.23;8.18;;;7.80;99.90;;;;;;5009234;28;20030;-70
2022/12/21 01:05:55;;;;;;;19.70;7.95;;;7.70;99.90;;;;;;4988040;28;20073;-70
2022/12/21 01:08:23;;;;;;;22.65;8.80;;;7.70;99.90;;;;;;5007988;28;20108;-70
2022/12/21 01:10:49;;;;;;;18.65;7.05;;;7.70;99.90;;;;;;5005318;28;20110;-71
2022/12/21 01:13:15;;;;;;;22.20;9.18;;;7.70;99.90;;;;;;5006378;28;20041;-71
2022/12/21 01:15:45;;;;;;;27.33;9.25;;;7.70;99.90;;;;;;5013171;28;20030;-71
2022/12/21 01:18:13;;;;;;;24.00;8.80;;;7.70;99.90;;;;;;5006169;28;20566;-71
2022/12/21 01:20:46;;;;;;;26.83;9.13;;;7.70;99.90;;;;;;5008131;28;20418;-70
2022/12/21 01:23:12;;;;;;;20.63;9.40;;;7.70;99.90;;;;;;5012648;28;20076;-70
2022/12/21 01:25:38;;;;;;;21.20;8.95;;;7.70;99.90;;;;;;5017383;28;20123;-70
2022/12/21 01:28:04;;;;;;;25.58;8.98;;;7.70;99.90;;;;;;5007668;28;20030;-70
2022/12/21 01:30:30;;;;;;;24.50;9.00;;;7.70;99.90;;;;;;5016839;28;20030;-70
2022/12/21 01:32:55;;;;;;;20.67;8.75;;;7.70;99.90;;;;;;5010507;28;20030;-70
2022/12/21 01:35:21;;;;;;;29.38;10.35;;;7.70;99.90;;;;;;5018436;28;20516;-71
2022/12/21 01:37:47;;;;;;;21.90;8.27;;;7.70;99.90;;;;;;5006633;28;20092;-70
2022/12/21 01:40:13;;;;;;;18.65;8.23;;;7.70;99.90;;;;;;5017309;28;20375;-71
2022/12/21 01:42:39;;;;;;;19.00;8.07;;;7.80;99.90;;;;;;5011385;28;20376;-71
2022/12/21 01:45:14;;;;;;;26.77;8.70;;;7.80;99.90;;;;;;5018041;28;20491;-70
2022/12/21 01:47:51;;;;;;;22.95;8.52;;;7.80;99.90;;;;;;5019575;28;20068;-71
2022/12/21 01:50:43;;;;;;;21.98;7.65;;;7.80;99.90;;;;;;5017317;28;20072;-70
2022/12/21 01:53:30;;;;;;;18.35;7.88;;;7.80;99.90;;;;;;5019511;28;20065;-70
2022/12/21 01:56:00;;;;;;;20.30;8.32;;;7.70;99.90;;;;;;5019285;28;20044;-70
2022/12/21 01:58:28;;;;;;;18.65;7.50;;;7.70;99.90;;;;;;5014515;28;20034;-71
2022/12/21 02:00:56;;;;;;;23.73;9.10;;;7.70;99.90;;;;;;5016500;28;20510;-70
2022/12/21 02:03:27;;;;;;;25.15;9.20;;;7.70;99.90;;;;;;5020993;28;20053;-70
2022/12/21 02:06:01;;;;;;;;;;;7.70;99.90;;;;;;5011894;28;20038;-70
2022/12/21 02:08:27;;;;;;;20.10;7.25;;;7.80;99.90;;;;;;5020330;28;19921;-70
2022/12/21 02:10:54;;;;;;;25.27;8.40;;;7.80;99.90;;;;;;5013138;28;20490;-70
2022/12/21 02:13:20;;;;;;;17.33;7.38;;;7.80;99.90;;;;;;5018043;28;20041;-70
2022/12/21 02:16:07;;;;;;;17.73;7.10;;;7.80;99.90;;;;;;5018092;28;20033;-71
2022/12/21 02:19:01;;;;;;;25.50;8.18;;;7.80;99.90;;;;;;5015427;28;20042;-71
2022/12/21 02:21:29;;;;;;;18.42;7.70;;;7.80;99.90;;;;;;5016050;28;20126;-70
2022/12/21 02:24:22;;;;;;;18.00;7.68;;;7.80;99.90;;;;;;5014763;28;20033;-70
2022/12/21 02:27:15;;;;;;;23.95;8.45;;;7.80;99.90;;;;;;5017170;28;20045;-69
2022/12/21 02:29:49;;;;;;;23.05;9.00;;;7.80;99.90;;;;;;5017485;28;20040;-70
2022/12/21 02:32:20;;;;;;;16.60;6.85;;;7.80;99.90;;;;;;5012842;28;20069;-70
2022/12/21 02:35:39;;;;;;;28.08;8.35;;;7.80;99.90;;;;;;5003785;28;20125;-72
2022/12/21 02:38:25;;;;;;;19.15;7.78;;;7.80;99.90;;;;;;4966507;28;20033;-70
2022/12/21 02:40:53;;;;;;;25.77;7.93;;;7.80;99.90;;;;;;5018152;28;20026;-70
2022/12/21 02:46:33;;;;;;;20.83;7.30;;;7.80;99.90;;;;;;5013909;28;20045;-70
2022/12/21 02:49:05;;;;;;;19.42;7.30;;;7.80;99.90;;;;;;5017072;28;20061;-72
2022/12/21 02:51:38;;;;;;;20.48;7.88;;;7.80;99.90;;;;;;5001187;28;20128;-71
2022/12/21 02:54:04;;;;;;;18.90;8.13;;;7.80;99.90;;;;;;4993577;28;20129;-70
2022/12/21 02:56:30;;;;;;;22.40;7.25;;;7.70;99.90;;;;;;5019072;28;20037;-71
2022/12/21 02:58:56;;;;;;;21.98;7.03;;;7.70;99.90;;;;;;5019200;28;20083;-69
2022/12/21 03:01:31;;;;;;;20.45;7.47;;;7.70;99.90;;;;;;5006282;28;20034;-69
2022/12/21 03:04:35;;;;;;;18.67;7.30;;;7.70;99.90;;;;;;5015387;28;20037;-70
2022/12/21 03:07:32;;;;;;;19.60;7.63;;;7.70;99.90;;;;;;5017240;28;20030;-71
2022/12/21 03:10:10;;;;;;;21.85;8.15;;;7.70;99.90;;;;;;5013884;28;20052;-70
2022/12/21 03:12:46;;;;;;;22.42;9.10;;;7.70;99.90;;;;;;5019190;28;20033;-71
2022/12/21 03:15:18;;;;;;;22.33;9.02;;;7.70;99.90;;;;;;4989824;28;20034;-70
2022/12/21 03:18:15;;;;;;;22.08;8.02;;;7.70;99.90;;;;;;5008071;28;20022;-71
2022/12/21 03:21:05;;;;;;;24.40;8.70;;;7.70;99.90;;;;;;4983540;28;20091;-70
2022/12/21 03:23:40;;;;;;;29.95;8.63;;;7.70;99.90;;;;;;5017061;28;20122;-70
2022/12/21 03:26:19;;;;;;;29.08;8.80;;;7.70;99.90;;;;;;5015212;28;20510;-69
2022/12/21 03:28:48;;;;;;;20.42;8.32;;;7.70;99.90;;;;;;5013805;28;20046;-71
2022/12/21 03:31:21;;;;;;;17.98;8.00;;;7.80;99.90;;;;;;5019630;28;20787;-71
2022/12/21 03:33:53;;;;;;;23.80;8.88;;;7.70;99.90;;;;;;5009918;28;20091;-70
2022/12/21 03:36:28;;;;;;;20.98;8.40;;;7.70;99.90;;;;;;5015548;28;20037;-69
2022/12/21 03:38:59;;;;;;;26.40;9.10;;;7.80;99.90;;;;;;5017149;28;20053;-70
2022/12/21 03:41:28;;;;;;;;;;;7.80;99.90;;;;;;5017826;28;20052;-71
2022/12/21 03:43:57;;;;;;;18.17;8.07;;;7.80;99.90;;;;;;5018838;28;19913;-71
2022/12/21 03:46:29;;;;;;;28.55;9.15;;;7.80;99.90;;;;;;5012290;28;20106;-71
2022/12/21 03:49:02;;;;;;;27.30;8.68;;;7.80;99.90;;;;;;5018409;28;20127;-71
2022/12/21 03:51:36;;;;;;;51.75;11.45;;;7.80;99.90;;;;;;5017804;28;20044;-71
2022/12/21 03:54:07;;;;;;;42.38;10.23;;;7.80;99.90;;;;;;5016685;28;20409;-72
2022/12/21 03:56:37;;;;;;;51.63;10.73;;;7.80;99.90;;;;;;5000999;28;20030;-70
2022/12/21 03:59:04;;;;;;;46.58;9.88;;;7.80;99.90;;;;;;5016366;28;20560;-71
2022/12/21 04:01:53;;;;;;;44.00;10.27;;;7.80;99.90;;;;;;4988838;28;20038;-71
2022/12/21 04:04:33;;;;;;;53.97;10.52;;;7.80;99.90;;;;;;5012348;28;20615;-70
2022/12/21 04:07:02;;;;;;;58.20;10.02;;;7.80;99.90;;;;;;5015424;28;20374;-70
2022/12/21 04:09:28;;;;;;;55.33;9.40;;;7.70;99.90;;;;;;5016642;28;20025;-70
2022/12/21 04:14:38;;;;;;;49.35;9.70;;;7.70;99.90;;;;;;5011288;28;20080;-70
2022/12/21 04:17:04;;;;;;;57.65;9.77;;;7.70;99.90;;;;;;5013248;28;20037;-70
2022/12/21 04:30:26;;;;;;;38.22;9.07;;;7.70;99.90;;;;;;5013417;28;21009;-70
2022/12/21 04:32:52;;;;;;;46.03;9.57;;;7.70;99.90;;;;;;5015377;28;20030;-71
2022/12/21 04:35:18;;;;;;;35.17;8.88;;;7.70;99.90;;;;;;5014549;28;20037;-71
2022/12/21 04:37:43;;;;;;;27.90;8.75;;;7.70;99.90;;;;;;5016280;28;20060;-70
2022/12/21 04:40:09;;;;;;;50.90;11.10;;;7.70;99.90;;;;;;5014831;28;20044;-70
2022/12/21 04:42:35;;;;;;;27.13;8.05;;;7.70;99.90;;;;;;5018672;28;20064;-71
2022/12/21 04:45:00;;;;;;;35.20;8.02;;;7.70;99.90;;;;;;5016281;28;20033;-72
2022/12/21 04:47:26;;;;;;;48.35;9.45;;;7.70;99.90;;;;;;5017090;28;20042;-70
2022/12/21 04:49:51;;;;;;;38.30;8.07;;;7.70;99.90;;;;;;5017724;28;20525;-70
2022/12/21 04:52:17;;;;;;;38.80;8.77;;;7.70;99.90;;;;;;5011470;28;20116;-70
2022/12/21 04:54:42;;;;;;;28.65;7.78;;;7.70;99.90;;;;;;5009877;28;20038;-70
2022/12/21 04:57:08;;;;;;;47.17;8.10;;;7.70;99.90;;;;;;5014445;28;20563;-71
2022/12/21 04:59:33;;;;;;;42.78;9.07;;;7.70;99.90;;;;;;5018407;28;20029;-71
2022/12/21 05:01:59;;;;;;;41.35;8.75;;;7.60;99.90;;;;;;5015904;28;20034;-70
2022/12/21 05:04:25;;;;;;;51.65;10.82;;;7.70;99.90;;;;;;5011574;28;20504;-71
2022/12/21 05:06:50;;;;;;;46.28;9.35;;;7.70;99.90;;;;;;5017483;28;20034;-71
2022/12/21 05:09:16;;;;;;;108.25;14.68;;;7.70;99.90;;;;;;5013618;28;20042;-72
2022/12/21 05:11:41;;;;;;;59.13;9.85;;;7.70;99.90;;;;;;5009114;28;20053;-70
2022/12/21 05:14:07;;;;;;;70.78;12.98;;;7.70;99.90;;;;;;5017634;28;20030;-70
2022/12/21 05:16:32;;;;;;;41.80;9.23;;;7.70;99.90;;;;;;5015763;28;20453;-70
2022/12/21 05:18:58;;;;;;;32.80;9.43;;;7.70;99.90;;;;;;5019847;28;20030;-69
2022/12/21 05:21:24;;;;;;;34.50;9.77;;;7.70;99.90;;;;;;5015017;28;20566;-70
2022/12/21 05:23:50;;;;;;;73.90;10.73;;;7.70;99.90;;;;;;5010007;28;20041;-71
2022/12/21 05:26:17;;;;;;;33.65;9.85;;;7.60;99.90;;;;;;5001009;28;20580;-70
2022/12/21 05:28:44;;;;;;;58.75;11.00;;;7.70;99.90;;;;;;5019705;28;20696;-70
2022/12/21 05:31:10;;;;;;;42.63;11.63;;;7.70;99.90;;;;;;5019286;28;20071;-70
2022/12/21 05:33:36;;;;;;;61.50;13.05;;;7.70;99.90;;;;;;5019055;28;20505;-70
2022/12/21 05:36:04;;;;;;;47.92;11.65;;;7.70;99.90;;;;;;5021602;28;20025;-71
2022/12/21 05:38:29;;;;;;;64.53;12.75;;;7.70;99.90;;;;;;5019648;28;20026;-71
2022/12/21 05:40:55;;;;;;;40.38;11.85;;;7.70;99.90;;;;;;5018245;28;20410;-70
2022/12/21 05:43:20;;;;;;;46.65;12.40;;;7.70;99.90;;;;;;5018474;28;20029;-71
2022/12/21 05:45:46;;;;;;;45.38;12.60;;;7.70;99.90;;;;;;5002441;28;20049;-70
2022/12/21 05:48:12;;;;;;;48.92;13.35;;;7.80;99.90;;;;;;5020905;28;20116;-70
2022/12/21 05:50:39;;;;;;;43.08;11.98;;;7.80;99.90;;;;;;5019792;28;20053;-70
2022/12/21 05:53:05;;;;;;;84.65;16.70;;;7.80;99.90;;;;;;5021305;28;20124;-70
2022/12/21 05:55:31;;;;;;;62.00;13.80;;;7.80;99.90;;;;;;5020948;28;20030;-71
2022/12/21 05:57:57;;;;;;;74.47;15.77;;;7.80;99.90;;;;;;5021154;28;20033;-69
2022/12/21 06:00:22;;;;;;;70.03;14.68;;;7.80;99.90;;;;;;5014190;28;20053;-70
2022/12/21 06:02:48;;;;;;;46.25;13.50;;;7.90;99.90;;;;;;5012809;28;20026;-70
2022/12/21 06:05:14;;;;;;;36.20;12.25;;;7.80;99.90;;;;;;5010779;28;20042;-71
2022/12/21 06:07:39;;;;;;;53.55;15.57;;;7.90;99.90;;;;;;5011649;28;20041;-70
2022/12/21 06:10:06;;;;;;;68.90;13.68;;;7.90;99.90;;;;;;5011864;28;20034;-70
2022/12/21 06:12:32;;;;;;;106.30;19.40;;;7.90;99.90;;;;;;5011914;28;20121;-70
2022/12/21 06:14:58;;;;;;;40.83;14.20;;;7.90;99.90;;;;;;5018475;28;20403;-70
2022/12/21 06:17:26;;;;;;;43.72;13.95;;;7.90;99.90;;;;;;5002118;28;20045;-71
2022/12/21 06:19:51;;;;;;;47.45;15.02;;;8.00;99.90;;;;;;5015333;28;20071;-71
2022/12/21 06:22:17;;;;;;;49.35;14.63;;;8.00;99.90;;;;;;4996038;28;20514;-71
2022/12/21 06:24:43;;;;;;;51.22;14.07;;;8.00;99.90;;;;;;5019873;28;20038;-71
2022/12/21 06:27:08;;;;;;;48.03;15.07;;;8.00;99.90;;;;;;5012844;28;20037;-71
2022/12/21 06:29:34;;;;;;;49.25;15.23;;;8.00;99.90;;;;;;5016466;28;20395;-70
2022/12/21 06:31:59;;;;;;;54.08;14.10;;;8.00;99.90;;;;;;5018613;28;20044;-70
2022/12/21 06:34:25;;;;;;;59.70;14.23;;;8.00;99.90;;;;;;5009160;28;20216;-70
2022/12/21 06:36:50;;;;;;;60.72;15.30;;;8.10;99.90;;;;;;5004006;28;20131;-71
2022/12/21 06:39:16;;;;;;;41.88;13.10;;;8.00;99.90;;;;;;4989862;28;20046;-70
2022/12/21 06:41:42;;;;;;;43.60;14.68;;;8.10;99.90;;;;;;5009072;28;20878;-71
2022/12/21 06:44:08;;;;;;;39.92;13.20;;;8.10;99.90;;;;;;5007475;28;20034;-71
2022/12/21 06:46:33;;;;;;;48.45;13.75;;;8.10;99.90;;;;;;5006726;28;20034;-71
2022/12/21 06:48:59;;;;;;;45.50;14.57;;;8.10;99.90;;;;;;5009769;28;20537;-70
2022/12/21 06:51:25;;;;;;;53.03;14.77;;;8.10;99.90;;;;;;4999263;28;20999;-69
2022/12/21 06:53:52;;;;;;;50.70;14.98;;;8.00;99.90;;;;;;5016142;28;20033;-71
2022/12/21 06:56:23;;;;;;;47.60;12.60;;;8.00;99.90;;;;;;5012017;28;20042;-70
2022/12/21 06:58:52;;;;;;;37.78;12.43;;;8.00;99.90;;;;;;5016238;28;20486;-71
2022/12/21 07:01:19;;;;;;;42.58;13.38;;;8.00;99.90;;;;;;5016071;28;20053;-71
2022/12/21 07:03:46;;;;;;;40.58;12.85;;;8.00;99.90;;;;;;5016872;28;20030;-70
2022/12/21 07:06:14;;;;;;;39.90;13.30;;;8.00;99.90;;;;;;5013498;28;20060;-67
2022/12/21 07:08:40;;;;;;;32.03;11.90;;;7.90;99.90;;;;;;5014603;28;20777;-70
2022/12/21 07:11:09;;;;;;;38.30;11.27;;;7.90;99.90;;;;;;5013223;28;20056;-70
2022/12/21 07:13:36;;;;;;;44.70;14.07;;;7.90;99.90;;;;;;5013655;28;20553;-70
2022/12/21 07:16:01;;;;;;;42.53;12.23;;;8.00;99.90;;;;;;5009197;28;20128;-70
2022/12/21 07:18:27;;;;;;;30.60;11.25;;;7.90;99.90;;;;;;5001262;28;20108;-70
2022/12/21 07:20:57;;;;;;;31.30;11.55;;;7.90;99.90;;;;;;5012833;28;20038;-70
2022/12/21 07:23:25;;;;;;;28.13;12.48;;;7.90;99.90;;;;;;5011841;28;20073;-71
2022/12/21 07:25:50;;;;;;;25.60;11.65;;;7.90;99.90;;;;;;5007012;28;20052;-70
2022/12/21 07:28:16;;;;;;;28.30;11.18;;;7.90;99.90;;;;;;5012542;28;20452;-70
2022/12/21 07:30:41;;;;;;;29.50;10.85;;;7.90;99.90;;;;;;5013219;28;20064;-71
2022/12/21 07:33:07;;;;;;;29.30;10.60;;;7.90;99.90;;;;;;5016637;28;20108;-71
2022/12/21 07:35:33;;;;;;;29.52;11.35;;;7.90;99.90;;;;;;5014879;28;20049;-71
2022/12/21 07:37:59;;;;;;;25.92;10.27;;;7.90;99.90;;;;;;5017448;28;20573;-71
2022/12/21 07:40:24;;;;;;;29.33;10.57;;;7.90;99.90;;;;;;5014058;28;20109;-72
2022/12/21 07:42:50;;;;;;;25.05;11.80;;;7.90;99.90;;;;;;4997744;28;20511;-72
2022/12/21 07:45:16;;;;;;;31.70;11.15;;;7.80;99.90;;;;;;4997049;28;20046;-71
2022/12/21 07:47:41;;;;;;;35.83;10.93;;;7.80;99.90;;;;;;5019802;28;20064;-71
2022/12/21 07:50:07;;;;;;;32.75;9.80;;;7.80;99.90;;;;;;4998524;28;20084;-71
2022/12/21 07:52:33;;;;;;;29.42;10.73;;;7.80;99.90;;;;;;5019495;28;20053;-71
2022/12/21 07:55:00;;;;;;;29.25;10.80;;;7.70;99.90;;;;;;5016710;28;20046;-71
2022/12/21 07:57:26;;;;;;;33.22;10.45;;;7.70;99.90;;;;;;5013511;28;20140;-72
2022/12/21 07:59:51;;;;;;;20.75;10.15;;;7.70;99.90;;;;;;5017384;28;20080;-71
2022/12/21 08:02:17;;;;;;;33.15;11.48;;;7.60;99.90;;;;;;5017419;28;20045;-73
2022/12/21 08:04:42;;;;;;;33.78;11.55;;;7.70;99.90;;;;;;5017750;28;20907;-71
2022/12/21 08:07:08;;;;;;;33.75;11.05;;;7.60;99.90;;;;;;5009624;28;20100;-71
2022/12/21 08:09:34;;;;;;;30.67;10.80;;;7.60;99.90;;;;;;5000372;28;20490;-71
2022/12/21 08:12:01;;;;;;;34.60;11.93;;;7.60;99.90;;;;;;5019630;28;20040;-70
2022/12/21 08:14:26;;;;;;;36.70;12.38;;;7.60;99.90;;;;;;5018814;28;20027;-72
2022/12/21 08:16:52;;;;;;;33.38;11.40;;;7.60;99.90;;;;;;5016150;28;20025;-71
2022/12/21 08:19:17;;;;;;;37.88;13.02;;;7.60;99.90;;;;;;4999522;28;20046;-71
2022/12/21 08:21:43;;;;;;;33.50;11.10;;;7.60;99.90;;;;;;5017577;28;20044;-70
2022/12/21 08:24:09;;;;;;;33.50;11.43;;;7.60;99.90;;;;;;5014783;28;20033;-71
2022/12/21 08:26:35;;;;;;;38.85;13.23;;;7.60;99.90;;;;;;5014077;28;20072;-71
2022/12/21 08:29:00;;;;;;;31.13;10.82;;;7.60;99.90;;;;;;5015709;28;20033;-70
2022/12/21 08:31:26;;;;;;;36.25;13.13;;;7.60;99.90;;;;;;5014793;28;20042;-71
2022/12/21 08:33:52;;;;;;;34.13;11.45;;;7.60;99.90;;;;;;5018993;28;20057;-71
2022/12/21 08:36:21;;;;;;;40.05;12.02;;;7.60;99.90;;;;;;5015472;28;20409;-71
2022/12/21 08:38:47;;;;;;;33.55;12.80;;;7.60;99.90;;;;;;5018208;28;20033;-72
2022/12/21 08:41:13;;;;;;;29.08;10.70;;;7.60;99.90;;;;;;5016246;28;20464;-72
2022/12/21 08:43:39;;;;;;;41.42;12.40;;;7.60;99.90;;;;;;5017281;28;20026;-70
2022/12/21 08:46:07;;;;;;;31.63;11.90;;;7.60;99.90;;;;;;4999181;28;20766;-71
2022/12/21 08:48:34;;;;;;;29.30;11.80;;;7.70;99.90;;;;;;5016633;28;20423;-70
2022/12/21 08:51:00;;;;;;;28.60;9.60;;;7.60;99.90;;;;;;5018443;28;20110;-71
2022/12/21 08:53:26;;;;;;;33.25;10.27;;;7.60;99.90;;;;;;4995313;28;20478;-70
2022/12/21 08:55:52;;;;;;;30.55;9.68;;;7.60;99.90;;;;;;5025691;28;20375;-71
2022/12/21 08:58:17;;;;;;;30.38;11.30;;;7.70;99.90;;;;;;5021876;28;20096;-70
2022/12/21 09:00:44;;;;;;;33.65;10.68;;;7.70;99.90;;;;;;5015623;28;20032;-71
2022/12/21 09:03:10;;;;;;;26.90;9.57;;;7.70;99.90;;;;;;5012429;28;20036;-70
2022/12/21 09:05:37;;;;;;;31.90;10.32;;;7.70;99.90;;;;;;5019845;28;20034;-70
2022/12/21 09:08:03;;;;;;;26.88;11.23;;;7.70;99.90;;;;;;5024240;28;20483;-71
2022/12/21 09:10:29;;;;;;;28.30;9.68;;;7.60;99.90;;;;;;5018495;28;20096;-71
2022/12/21 09:12:57;;;;;;;25.75;9.88;;;7.60;99.90;;;;;;5022231;28;20415;-71
2022/12/21 09:15:23;;;;;;;25.55;9.65;;;7.60;99.90;;;;;;5017196;28;20052;-71
2022/12/21 09:17:49;;;;;;;31.92;9.98;;;7.60;99.90;;;;;;5023262;28;20140;-70
2022/12/21 09:20:15;;;;;;;30.38;9.48;;;7.60;99.90;;;;;;5020512;28;20025;-71
2022/12/21 09:22:40;;;;;;;29.45;9.43;;;7.60;99.90;;;;;;5024276;28;20504;-71
2022/12/21 09:25:08;;;;;;;29.83;9.45;;;7.60;99.90;;;;;;5021647;28;20048;-72
2022/12/21 09:27:34;;;;;;;23.65;8.48;;;7.60;99.90;;;;;;5019972;28;20405;-70
2022/12/21 09:29:59;;;;;;;21.02;9.13;;;7.60;99.90;;;;;;5023400;28;20026;-71
2022/12/21 09:32:25;;;;;;;24.27;8.98;;;7.60;99.90;;;;;;5025499;28;20029;-71
2022/12/21 09:34:51;;;;;;;22.13;8.35;;;7.60;99.90;;;;;;5021976;28;20034;-71
2022/12/21 09:37:17;;;;;;;32.83;9.25;;;7.60;99.90;;;;;;5023906;28;20048;-70
2022/12/21 09:39:43;;;;;;;22.85;8.63;;;7.60;99.90;;;;;;5022513;28;20029;-71
2022/12/21 09:42:31;;;;;;;26.17;9.65;;;7.60;99.90;;;;;;5022861;28;20398;-71
2022/12/21 09:45:05;;;;;;;29.88;9.50;;;7.70;99.90;;;;;;5019089;28;20032;-71
2022/12/21 09:47:42;;;;;;;29.13;7.80;;;7.70;99.90;;;;;;5021949;28;20111;-71
2022/12/21 09:50:17;;;;;;;27.45;8.68;;;7.70;99.90;;;;;;5022593;28;20042;-70
2022/12/21 09:52:47;;;;;;;20.25;7.60;;;7.70;99.90;;;;;;5022205;28;20080;-70
2022/12/21 09:55:20;;;;;;;20.38;7.68;;;7.70;99.90;;;;;;5005538;28;20738;-71
2022/12/21 09:57:52;;;;;;;25.80;7.05;;;7.70;99.90;;;;;;5022012;28;20029;-70
2022/12/21 10:00:21;;;;;;;29.05;8.10;;;7.70;99.90;;;;;;5020416;28;20034;-71
2022/12/21 10:02:50;;;;;;;19.13;8.10;;;7.60;99.90;;;;;;5024736;28;20657;-69
2022/12/21 10:05:34;;;;;;;20.88;7.20;;;7.60;99.90;;;;;;5013796;28;20383;-71
2022/12/21 10:08:12;;;;;;;29.90;8.75;;;7.60;99.90;;;;;;5015116;28;20029;-71
2022/12/21 10:11:04;;;;;;;18.77;7.28;;;7.60;99.90;;;;;;5019747;28;20034;-71
2022/12/21 10:13:41;;;;;;;23.10;7.53;;;7.60;99.90;;;;;;5019336;28;20033;-71
2022/12/21 10:16:18;;;;;;;18.52;7.32;;;7.60;99.90;;;;;;5019101;28;20037;-71
2022/12/21 10:19:07;;;;;;;23.60;8.77;;;7.60;99.90;;;;;;5018307;28;20506;-71
2022/12/21 10:22:00;;;;;;;25.48;7.82;;;7.70;99.90;;;;;;5016494;28;20030;-71
2022/12/21 10:24:35;;;;;;;17.50;7.43;;;7.70;99.90;;;;;;5014355;28;20041;-72
2022/12/21 10:27:10;;;;;;;21.92;7.95;;;7.70;99.90;;;;;;5016292;28;20042;-71
2022/12/21 10:29:39;;;;;;;22.42;7.35;;;7.70;99.90;;;;;;5016923;28;20553;-71
2022/12/21 10:32:05;;;;;;;19.50;7.25;;;7.80;99.90;;;;;;5017002;28;20057;-71
2022/12/21 10:34:36;;;;;;;34.47;8.60;;;7.80;99.90;;;;;;5019024;28;20053;-71
2022/12/21 10:37:19;;;;;;;25.83;8.52;;;7.90;99.90;;;;;;5015210;28;20033;-71
2022/12/21 10:40:03;;;;;;;27.67;9.13;;;7.90;99.90;;;;;;5018216;28;20049;-70
2022/12/21 10:42:41;;;;;;;30.33;9.10;;;7.90;99.90;;;;;;5007651;28;20113;-71
2022/12/21 10:45:13;;;;;;;22.05;8.70;;;7.90;99.90;;;;;;5005745;28;20071;-70
2022/12/21 10:47:40;;;;;;;35.67;9.23;;;7.90;99.90;;;;;;4989125;28;20049;-71
2022/12/21 10:50:17;;;;;;;28.25;9.15;;;7.90;99.90;;;;;;5012145;28;20034;-71
2022/12/21 10:52:47;;;;;;;27.63;7.75;;;8.00;99.90;;;;;;5012987;28;20060;-71
2022/12/21 10:55:18;;;;;;;23.58;8.32;;;8.00;99.90;;;;;;5017841;28;20030;-71
2022/12/21 10:57:57;;;;;;;22.73;8.50;;;8.10;99.90;;;;;;5016081;28;20026;-71
2022/12/21 11:00:31;;;;;;;26.40;9.43;;;8.10;99.90;;;;;;5013579;28;20811;-70
2022/12/21 11:03:06;;;;;;;29.08;10.30;;;8.10;99.90;;;;;;5001752;28;20110;-70
2022/12/21 11:05:35;;;;;;;26.33;9.25;;;8.20;99.90;;;;;;5000331;28;20029;-70
2022/12/21 11:08:13;;;;;;;19.92;8.95;;;8.20;99.90;;;;;;5019389;28;20037;-71
2022/12/21 11:10:43;;;;;;;22.27;8.63;;;8.20;99.90;;;;;;5017143;28;20042;-71
2022/12/21 11:13:11;;;;;;;16.23;6.47;;;8.20;99.90;;;;;;5013322;28;20045;-71
2022/12/21 11:15:37;;;;;;;26.70;8.75;;;8.10;99.90;;;;;;4988576;28;20490;-70
2022/12/21 11:18:03;;;;;;;24.13;8.77;;;8.20;99.90;;;;;;5004788;28;20042;-72
2022/12/21 11:20:30;;;;;;;22.15;9.85;;;8.10;99.90;;;;;;5004125;28;20050;-70
2022/12/21 11:22:57;;;;;;;23.75;9.45;;;8.20;99.90;;;;;;5005885;28;20057;-71
2022/12/21 11:25:28;;;;;;;26.13;9.90;;;8.20;99.90;;;;;;5004709;28;20451;-71
2022/12/21 11:27:59;;;;;;;28.42;9.73;;;8.20;99.90;;;;;;5006620;28;20394;-70
2022/12/21 11:30:35;;;;;;;28.30;10.60;;;8.20;99.90;;;;;;5009863;28;20041;-71
2022/12/21 11:33:02;;;;;;;20.80;9.63;;;8.30;99.90;;;;;;4986429;28;20026;-71
2022/12/21 11:35:34;;;;;;;27.80;11.10;;;8.30;99.90;;;;;;5007885;28;20052;-71
2022/12/21 11:38:15;;;;;;;35.42;11.25;;;8.30;99.90;;;;;;5005003;28;20099;-71
2022/12/21 11:40:58;;;;;;;25.27;10.50;;;8.30;99.90;;;;;;4987186;28;20176;-72
2022/12/21 11:43:24;;;;;;;25.38;9.40;;;8.20;99.90;;;;;;5003734;28;20116;-71
2022/12/21 11:46:26;;;;;;;27.08;10.63;;;8.20;99.90;;;;;;5005074;28;20030;-71
2022/12/21 11:49:03;;;;;;;28.95;9.27;;;8.20;99.90;;;;;;5002593;28;20037;-71
2022/12/21 11:51:48;;;;;;;27.27;9.10;;;8.30;99.90;;;;;;4987078;28;20046;-70
2022/12/21 11:54:37;;;;;;;24.23;8.50;;;8.20;99.90;;;;;;5004910;28;20034;-72
2022/12/21 11:57:30;;;;;;;21.17;8.73;;;8.30;99.90;;;;;;4978200;28;20034;-70
2022/12/21 12:00:06;;;;;;;24.20;9.02;;;8.30;99.90;;;;;;5003335;28;20038;-70
2022/12/21 12:02:55;;;;;;;24.83;7.60;;;8.30;99.90;;;;;;5003970;28;20088;-70
2022/12/21 12:05:34;;;;;;;21.13;9.30;;;8.30;99.90;;;;;;5001653;28;20092;-70
2022/12/21 12:08:32;;;;;;;19.88;8.30;;;8.30;99.90;;;;;;5004486;28;20048;-70
2022/12/21 12:11:01;;;;;;;27.92;8.55;;;8.40;99.90;;;;;;5004389;28;20034;-70
2022/12/21 12:13:55;;;;;;;18.77;7.65;;;8.40;99.90;;;;;;5003246;28;20045;-71
2022/12/21 12:16:32;;;;;;;21.85;7.53;;;8.40;99.90;;;;;;5001802;28;20038;-71
2022/12/21 12:19:26;;;;;;;21.60;8.25;;;8.50;99.90;;;;;;5016675;28;20034;-71
2022/12/21 12:21:54;;;;;;;20.35;8.15;;;8.40;99.90;;;;;;5011639;28;20065;-71
2022/12/21 12:24:43;;;;;;;19.48;7.63;;;8.40;99.90;;;;;;5015891;28;20033;-71
2022/12/21 12:27:31;;;;;;;25.67;9.20;;;8.40;99.90;;;;;;5018282;28;20110;-70
2022/12/21 12:30:12;;;;;;;26.20;8.02;;;8.40;99.90;;;;;;5015481;28;20042;-71
2022/12/21 12:33:00;;;;;;;18.30;7.57;;;8.40;99.90;;;;;;5015075;28;20516;-70
2022/12/21 12:35:55;;;;;;;16.90;7.00;;;8.40;99.90;;;;;;5014622;28;20045;-71
2022/12/21 12:38:42;;;;;;;17.02;6.82;;;8.40;99.90;;;;;;5013414;28;20489;-70
2022/12/21 12:41:19;;;;;;;16.90;7.70;;;8.40;99.90;;;;;;5015184;28;20045;-71
2022/12/21 12:44:00;;;;;;;18.67;6.15;;;8.40;99.90;;;;;;4994579;28;20068;-71
2022/12/21 12:46:34;;;;;;;22.70;6.72;;;8.40;99.90;;;;;;5016640;28;20508;-71
2022/12/21 12:49:21;;;;;;;17.60;7.30;;;8.40;99.90;;;;;;5017376;28;20046;-70
2022/12/21 12:51:52;;;;;;;26.98;8.40;;;8.40;99.90;;;;;;5012126;28;20577;-70
2022/12/21 12:54:29;;;;;;;14.38;7.57;;;8.40;99.90;;;;;;5016267;28;20041;-71
2022/12/21 12:57:02;;;;;;;16.55;7.10;;;8.40;99.90;;;;;;5017392;28;20042;-70
2022/12/21 12:59:51;;;;;;;19.65;7.53;;;8.40;99.90;;;;;;5015373;28;20033;-71
2022/12/21 13:02:37;;;;;;;18.08;6.90;;;8.50;99.90;;;;;;5010224;28;20060;-70
2022/12/21 13:05:24;;;;;;;13.35;6.30;;;8.50;99.90;;;;;;5001816;28;20047;-71
2022/12/21 13:08:08;;;;;;;19.55;6.57;;;8.60;99.90;;;;;;5012065;28;20076;-70
2022/12/21 13:10:49;;;;;;;17.20;6.70;;;8.60;99.90;;;;;;5010961;28;20030;-71
2022/12/21 13:13:32;;;;;;;14.95;7.18;;;8.60;99.90;;;;;;5010246;28;20034;-71
2022/12/21 13:16:10;;;;;;;13.20;5.93;;;8.50;99.90;;;;;;5015654;28;20045;-71
2022/12/21 13:18:44;;;;;;;17.92;6.80;;;8.60;99.90;;;;;;5018069;28;20037;-71
2022/12/21 13:21:11;;;;;;;18.13;7.45;;;8.50;99.90;;;;;;5010374;28;20061;-70